Time;durP1;ratioP1;P1;durP2;ratioP2;P2;SDS_P1;SDS_P2;PMS_P1;PMS_P2;Temp;Humidity;BMP_temperature;BMP_pressure;BME280_temperature;BME280_humidity;BME280_pressure;Samples;Min_cycle;Max_cycle;Signal;HPM_P1;HPM_P2
2023/02/15 00:01:24;;;;;;;27.60;19.30;;;5.10;99.90;;;;;;5012977;28;20605;-75
2023/02/15 00:03:50;;;;;;;32.30;20.33;;;5.10;99.90;;;;;;5014483;28;20625;-75
2023/02/15 00:06:16;;;;;;;21.17;14.73;;;5.10;99.90;;;;;;5014171;28;20182;-75
2023/02/15 00:08:42;;;;;;;19.83;14.63;;;5.10;99.90;;;;;;5013258;28;20170;-75
2023/02/15 00:11:10;;;;;;;27.13;18.30;;;5.10;99.90;;;;;;5012900;28;20619;-75
2023/02/15 00:13:38;;;;;;;25.63;18.83;;;5.10;99.90;;;;;;5012874;28;20581;-74
2023/02/15 00:16:07;;;;;;;23.58;17.77;;;5.00;99.90;;;;;;5013791;28;20174;-74
2023/02/15 00:18:33;;;;;;;25.92;17.27;;;5.00;99.90;;;;;;5011511;28;20205;-75
2023/02/15 00:21:02;;;;;;;26.50;18.40;;;5.00;99.90;;;;;;4992525;28;20214;-75
2023/02/15 00:23:28;;;;;;;25.27;15.93;;;5.00;99.90;;;;;;4992768;28;21243;-75
2023/02/15 00:26:04;;;;;;;30.10;19.40;;;5.00;99.90;;;;;;4993004;28;20179;-75
2023/02/15 00:28:30;;;;;;;22.80;17.77;;;4.90;99.90;;;;;;4992563;28;20218;-75
2023/02/15 00:31:06;;;;;;;22.77;15.27;;;5.00;99.90;;;;;;4992591;28;20207;-75
2023/02/15 00:33:35;;;;;;;19.45;14.80;;;5.00;99.90;;;;;;4976307;28;20179;-75
2023/02/15 00:36:02;;;;;;;26.13;17.60;;;4.90;99.90;;;;;;4992949;28;20179;-75
2023/02/15 00:38:28;;;;;;;29.58;17.73;;;4.90;99.90;;;;;;4993051;28;20171;-75
2023/02/15 00:40:55;;;;;;;25.55;17.13;;;4.90;99.90;;;;;;4991787;28;20199;-75
2023/02/15 00:43:24;;;;;;;20.52;14.48;;;4.90;99.90;;;;;;4993870;28;20171;-75
2023/02/15 00:45:50;;;;;;;24.08;15.48;;;4.90;99.90;;;;;;4991993;28;20237;-75
2023/02/15 00:48:17;;;;;;;28.10;18.15;;;4.90;99.90;;;;;;4992524;28;20206;-75
2023/02/15 00:50:56;;;;;;;25.27;16.95;;;4.90;99.90;;;;;;4975476;28;20262;-75
2023/02/15 00:53:23;;;;;;;29.02;19.58;;;4.80;99.90;;;;;;4979965;28;20290;-75
2023/02/15 00:55:49;;;;;;;25.52;18.23;;;4.80;99.90;;;;;;5012753;28;20202;-75
2023/02/15 00:58:15;;;;;;;30.05;19.05;;;4.80;99.90;;;;;;5012109;28;20233;-75
2023/02/15 01:00:44;;;;;;;33.42;21.73;;;4.80;99.90;;;;;;5011554;28;20178;-75
2023/02/15 01:03:10;;;;;;;22.75;16.00;;;4.70;99.90;;;;;;4991593;28;20186;-75
2023/02/15 01:05:36;;;;;;;28.17;20.83;;;4.70;99.90;;;;;;5008541;28;20178;-75
2023/02/15 01:08:03;;;;;;;26.85;18.58;;;4.70;99.90;;;;;;4992951;28;20198;-75
2023/02/15 01:10:29;;;;;;;22.10;15.02;;;4.70;99.90;;;;;;4993323;28;20175;-75
2023/02/15 01:12:56;;;;;;;20.65;15.13;;;4.70;99.90;;;;;;5007064;28;21017;-75
2023/02/15 01:15:23;;;;;;;25.33;16.80;;;4.70;99.90;;;;;;4993642;28;20674;-75
2023/02/15 01:17:53;;;;;;;21.85;15.60;;;4.70;99.90;;;;;;5008347;28;20178;-75
2023/02/15 01:20:25;;;;;;;26.88;17.40;;;4.70;99.90;;;;;;4995146;28;20202;-75
2023/02/15 01:22:52;;;;;;;23.17;15.55;;;4.60;99.90;;;;;;4991227;28;20210;-75
2023/02/15 01:25:20;;;;;;;28.30;19.05;;;4.60;99.90;;;;;;4975562;28;20179;-75
2023/02/15 01:27:46;;;;;;;26.35;18.63;;;4.60;99.90;;;;;;4991646;28;20213;-75
2023/02/15 01:30:14;;;;;;;23.95;17.42;;;4.60;99.90;;;;;;4982999;28;20225;-75
2023/02/15 01:32:40;;;;;;;23.42;16.42;;;4.60;99.90;;;;;;4990801;28;20217;-75
2023/02/15 01:35:07;;;;;;;23.70;16.20;;;4.60;99.90;;;;;;4991487;28;20194;-75
2023/02/15 01:37:34;;;;;;;24.73;16.48;;;4.60;99.90;;;;;;4991462;28;20187;-75
2023/02/15 01:40:01;;;;;;;21.60;15.10;;;4.50;99.90;;;;;;4991196;28;20703;-75
2023/02/15 01:42:28;;;;;;;28.45;20.13;;;4.50;99.90;;;;;;4990883;28;20745;-75
2023/02/15 01:44:57;;;;;;;22.02;17.02;;;4.50;99.90;;;;;;4991130;28;20705;-75
2023/02/15 01:47:43;;;;;;;23.73;16.13;;;4.50;99.90;;;;;;4990987;28;20213;-75
2023/02/15 01:50:17;;;;;;;24.50;16.23;;;4.50;99.90;;;;;;5001184;28;20186;-75
2023/02/15 01:53:02;;;;;;;25.20;17.48;;;4.50;99.90;;;;;;4990736;28;20200;-75
2023/02/15 01:55:33;;;;;;;27.42;19.02;;;4.40;99.90;;;;;;5010732;28;20174;-75
2023/02/15 01:58:00;;;;;;;27.85;17.95;;;4.40;99.90;;;;;;4994225;28;20182;-75
2023/02/15 02:00:26;;;;;;;30.50;20.10;;;4.30;99.90;;;;;;4994307;28;20166;-75
2023/02/15 02:02:55;;;;;;;31.42;20.17;;;4.30;99.90;;;;;;5002304;28;20296;-75
2023/02/15 02:05:24;;;;;;;29.80;19.63;;;4.30;99.90;;;;;;5003580;28;20178;-75
2023/02/15 02:07:52;;;;;;;24.30;16.23;;;4.30;99.90;;;;;;4994150;28;20210;-76
2023/02/15 02:10:22;;;;;;;23.33;15.90;;;4.30;99.90;;;;;;4988495;28;20506;-76
2023/02/15 02:12:52;;;;;;;23.55;15.00;;;4.30;99.90;;;;;;4995244;28;20594;-76
2023/02/15 02:15:20;;;;;;;25.85;16.80;;;4.30;99.90;;;;;;4974420;28;20542;-76
2023/02/15 02:17:49;;;;;;;28.60;18.65;;;4.30;99.90;;;;;;4974918;28;20171;-76
2023/02/15 02:20:36;;;;;;;23.85;16.63;;;4.20;99.90;;;;;;4990238;28;20207;-76
2023/02/15 02:23:18;;;;;;;29.58;19.75;;;4.20;99.90;;;;;;4974085;28;20190;-76
2023/02/15 02:26:22;;;;;;;22.40;16.60;;;4.20;99.90;;;;;;4974797;28;20171;-76
2023/02/15 02:29:26;;;;;;;25.27;17.00;;;4.20;99.90;;;;;;4974355;28;20183;-76
2023/02/15 02:32:23;;;;;;;24.88;16.30;;;4.20;99.90;;;;;;4989983;28;20221;-76
2023/02/15 02:35:08;;;;;;;23.35;15.52;;;4.20;99.90;;;;;;4991667;28;20171;-76
2023/02/15 02:37:54;;;;;;;27.35;18.20;;;4.10;99.90;;;;;;4991062;28;20586;-76
2023/02/15 02:40:46;;;;;;;25.00;15.40;;;4.10;99.90;;;;;;4973850;28;20210;-76
2023/02/15 02:43:19;;;;;;;30.48;16.60;;;4.10;99.90;;;;;;4990208;28;20191;-76
2023/02/15 02:45:55;;;;;;;28.15;17.48;;;4.10;99.90;;;;;;4991208;28;20295;-76
2023/02/15 02:48:25;;;;;;;22.65;15.13;;;4.10;99.90;;;;;;4990333;28;20298;-77
2023/02/15 02:50:52;;;;;;;25.50;16.27;;;4.10;99.90;;;;;;4990913;28;20289;-76
2023/02/15 02:53:17;;;;;;;26.97;16.50;;;4.10;99.90;;;;;;4989742;28;20853;-76
2023/02/15 02:56:14;;;;;;;25.73;15.60;;;4.00;99.90;;;;;;4958082;28;20202;-76
2023/02/15 02:58:49;;;;;;;27.42;16.50;;;4.00;99.90;;;;;;4987830;28;20179;-76
2023/02/15 03:01:24;;;;;;;28.52;19.63;;;4.00;99.90;;;;;;4989673;28;20625;-76
2023/02/15 03:03:56;;;;;;;22.52;15.80;;;4.00;99.90;;;;;;4990277;28;20595;-76
2023/02/15 03:06:49;;;;;;;28.25;18.35;;;4.00;99.90;;;;;;4974019;28;20175;-76
2023/02/15 03:09:22;;;;;;;23.45;15.95;;;4.00;99.90;;;;;;4997983;28;20221;-76
2023/02/15 03:11:49;;;;;;;29.45;19.08;;;4.00;99.90;;;;;;4999045;28;20198;-76
2023/02/15 03:14:18;;;;;;;23.45;16.00;;;3.90;99.90;;;;;;4996884;28;20622;-76
2023/02/15 03:16:48;;;;;;;29.17;18.33;;;3.90;99.90;;;;;;5013731;28;20209;-76
2023/02/15 03:19:20;;;;;;;27.55;20.80;;;3.90;99.90;;;;;;5006374;28;20558;-76
2023/02/15 03:21:57;;;;;;;23.75;15.82;;;3.80;99.90;;;;;;5012975;28;20190;-75
2023/02/15 03:24:35;;;;;;;28.08;19.00;;;3.80;99.90;;;;;;5013352;28;20256;-76
2023/02/15 03:27:06;;;;;;;29.92;17.00;;;3.80;99.90;;;;;;5013705;28;20237;-75
2023/02/15 03:29:33;;;;;;;26.33;17.27;;;3.80;99.90;;;;;;5014879;28;20174;-75
2023/02/15 03:32:02;;;;;;;31.00;17.10;;;3.80;99.90;;;;;;5011990;28;20205;-75
2023/02/15 03:34:28;;;;;;;26.58;17.13;;;3.80;99.90;;;;;;5014461;28;21114;-75
2023/02/15 03:37:00;;;;;;;29.77;16.77;;;3.80;99.90;;;;;;5012952;28;20201;-75
2023/02/15 03:39:34;;;;;;;30.67;18.98;;;3.70;99.90;;;;;;5013169;28;20178;-75
2023/02/15 03:42:26;;;;;;;25.10;16.88;;;3.70;99.90;;;;;;5011924;28;20243;-75
2023/02/15 03:44:58;;;;;;;24.65;16.58;;;3.70;99.90;;;;;;5014332;28;20182;-75
2023/02/15 03:47:29;;;;;;;24.50;15.27;;;3.70;99.90;;;;;;5014291;28;20293;-75
2023/02/15 03:50:02;;;;;;;24.65;15.77;;;3.70;99.90;;;;;;5016036;28;20162;-75
2023/02/15 03:52:30;;;;;;;23.98;15.95;;;3.70;99.90;;;;;;5016566;28;20245;-75
2023/02/15 03:54:56;;;;;;;27.58;17.20;;;3.70;99.90;;;;;;5009608;28;20186;-76
2023/02/15 04:03:09;;;;;;;24.98;17.00;;;3.60;99.90;;;;;;4992053;28;20175;-76
2023/02/15 04:05:35;;;;;;;26.35;17.77;;;3.60;99.90;;;;;;4993632;28;20590;-75
2023/02/15 04:08:01;;;;;;;27.23;18.90;;;3.60;99.90;;;;;;4993448;28;20206;-75
2023/02/15 04:13:11;;;;;;;24.15;15.35;;;3.60;99.90;;;;;;4993008;28;20307;-76
2023/02/15 04:18:21;;;;;;;26.30;16.58;;;3.60;99.90;;;;;;5012783;28;20619;-76
2023/02/15 04:26:16;;;;;;;22.63;14.75;;;3.60;99.90;;;;;;4995578;28;20178;-75
2023/02/15 04:28:42;;;;;;;23.90;14.70;;;3.60;99.90;;;;;;4995573;28;20178;-76
2023/02/15 04:31:08;;;;;;;29.03;18.73;;;3.60;99.90;;;;;;4994687;28;20629;-75
2023/02/15 04:33:35;;;;;;;24.92;15.02;;;3.60;99.90;;;;;;4996076;28;20217;-75
2023/02/15 04:36:02;;;;;;;23.33;15.13;;;3.60;99.90;;;;;;4979399;28;20199;-75
2023/02/15 04:38:28;;;;;;;23.88;15.20;;;3.60;99.90;;;;;;4996133;28;20205;-76
2023/02/15 04:40:54;;;;;;;26.63;15.87;;;3.60;99.90;;;;;;4977733;28;20253;-76
2023/02/15 04:43:20;;;;;;;29.83;17.30;;;3.60;99.90;;;;;;4995657;28;20206;-76
2023/02/15 04:45:50;;;;;;;24.00;16.27;;;3.60;99.90;;;;;;4997126;28;20175;-76
2023/02/15 04:48:17;;;;;;;25.08;17.55;;;3.60;99.90;;;;;;5007020;28;20194;-78
2023/02/15 04:50:43;;;;;;;23.08;15.18;;;3.60;99.90;;;;;;4995739;28;20172;-74
2023/02/15 04:53:09;;;;;;;21.63;14.25;;;3.60;99.90;;;;;;5002877;28;20214;-75
2023/02/15 04:55:35;;;;;;;26.70;17.00;;;3.60;99.90;;;;;;5008634;28;20217;-75
2023/02/15 04:58:00;;;;;;;22.80;15.50;;;3.50;99.90;;;;;;4997292;28;21227;-75
2023/02/15 05:00:27;;;;;;;22.30;14.55;;;3.60;99.90;;;;;;5011689;28;20209;-75
2023/02/15 05:02:53;;;;;;;23.05;14.85;;;3.60;99.90;;;;;;5005777;28;20194;-75
2023/02/15 05:05:18;;;;;;;25.70;16.33;;;3.60;99.90;;;;;;5011362;28;20182;-74
2023/02/15 05:07:44;;;;;;;23.63;16.20;;;3.50;99.90;;;;;;5001917;28;20203;-75
2023/02/15 05:10:10;;;;;;;23.00;14.27;;;3.50;99.90;;;;;;4994691;28;20578;-75
2023/02/15 05:12:36;;;;;;;20.03;13.57;;;3.50;99.90;;;;;;5004565;28;20651;-75
2023/02/15 05:15:01;;;;;;;22.13;14.27;;;3.50;99.90;;;;;;5012698;28;20539;-75
2023/02/15 05:17:27;;;;;;;21.67;13.73;;;3.60;99.90;;;;;;5012146;28;20596;-75
2023/02/15 05:19:53;;;;;;;26.60;15.17;;;3.50;99.90;;;;;;4999880;28;20187;-75
2023/02/15 05:22:18;;;;;;;18.83;12.10;;;3.50;99.90;;;;;;4990844;28;20199;-75
2023/02/15 05:30:13;;;;;;;21.90;14.00;;;3.50;99.90;;;;;;5004095;28;20732;-75
2023/02/15 05:32:39;;;;;;;23.05;14.15;;;3.50;99.90;;;;;;5011241;28;20291;-75
2023/02/15 05:35:06;;;;;;;19.17;13.47;;;3.40;99.90;;;;;;5013105;28;20616;-75
2023/02/15 05:37:32;;;;;;;25.27;16.00;;;3.40;99.90;;;;;;5012168;28;20581;-75
2023/02/15 05:39:58;;;;;;;25.00;16.97;;;3.40;99.90;;;;;;5013698;28;20178;-75
2023/02/15 05:42:23;;;;;;;21.10;13.83;;;3.40;99.90;;;;;;5011261;28;20195;-75
2023/02/15 05:44:49;;;;;;;22.63;13.87;;;3.40;99.90;;;;;;4995040;28;20697;-75
2023/02/15 05:47:15;;;;;;;26.30;16.50;;;3.40;99.90;;;;;;5012345;28;20198;-75
2023/02/15 05:49:40;;;;;;;28.00;15.67;;;3.40;99.90;;;;;;5027440;28;20174;-75
2023/02/15 05:52:06;;;;;;;22.10;15.40;;;3.40;99.90;;;;;;5012234;28;20197;-75
2023/02/15 05:54:32;;;;;;;21.60;14.60;;;3.40;99.90;;;;;;5010764;28;20277;-75
2023/02/15 05:56:57;;;;;;;28.17;17.73;;;3.40;99.90;;;;;;5011477;28;20390;-75
2023/02/15 05:59:23;;;;;;;25.70;16.73;;;3.40;99.90;;;;;;5012409;28;20178;-75
2023/02/15 06:01:49;;;;;;;20.07;12.90;;;3.30;99.90;;;;;;5012968;28;20285;-75
2023/02/15 06:04:15;;;;;;;28.87;18.67;;;3.40;99.90;;;;;;5011919;28;20569;-75
2023/02/15 06:06:41;;;;;;;21.50;14.85;;;3.40;99.90;;;;;;5011673;28;20690;-76
2023/02/15 06:09:07;;;;;;;28.03;16.57;;;3.30;99.90;;;;;;5011802;28;20287;-77
2023/02/15 06:11:32;;;;;;;21.50;15.17;;;3.30;99.90;;;;;;5012570;28;20674;-75
2023/02/15 06:13:58;;;;;;;22.67;15.00;;;3.30;99.90;;;;;;5013391;28;20222;-77
2023/02/15 06:16:24;;;;;;;22.83;15.57;;;3.30;99.90;;;;;;5015581;28;20169;-77
2023/02/15 06:18:49;;;;;;;20.03;13.93;;;3.30;99.90;;;;;;5025309;28;20197;-77
2023/02/15 06:21:15;;;;;;;24.83;15.57;;;3.30;99.90;;;;;;4991264;28;20187;-77
2023/02/15 06:23:41;;;;;;;24.87;15.10;;;3.30;99.90;;;;;;4991865;28;20182;-77
2023/02/15 06:26:06;;;;;;;21.70;14.33;;;3.30;99.90;;;;;;4993528;28;20221;-77
2023/02/15 06:28:32;;;;;;;24.00;15.20;;;3.30;99.90;;;;;;4992488;28;20198;-77
2023/02/15 06:30:58;;;;;;;25.30;17.53;;;3.30;99.90;;;;;;5008808;28;20195;-77
2023/02/15 06:33:23;;;;;;;23.70;14.53;;;3.30;99.90;;;;;;4992105;28;20187;-77
2023/02/15 06:35:49;;;;;;;20.70;14.23;;;3.30;99.90;;;;;;5010977;28;20175;-77
2023/02/15 06:38:15;;;;;;;24.43;14.37;;;3.30;99.90;;;;;;5008948;28;20178;-74
2023/02/15 06:40:40;;;;;;;25.63;16.47;;;3.30;99.90;;;;;;5009528;28;20186;-77
2023/02/15 06:43:06;;;;;;;20.30;14.33;;;3.30;99.90;;;;;;5007574;28;20233;-77
2023/02/15 06:45:32;;;;;;;19.27;12.30;;;3.30;99.90;;;;;;4992516;28;20225;-77
2023/02/15 06:47:58;;;;;;;22.27;13.60;;;3.30;99.90;;;;;;4991733;28;20214;-77
2023/02/15 06:50:23;;;;;;;23.30;14.53;;;3.30;99.90;;;;;;4992927;28;20579;-77
2023/02/15 06:52:49;;;;;;;23.17;15.53;;;3.30;99.90;;;;;;4993663;28;20194;-77
2023/02/15 06:55:15;;;;;;;20.27;13.93;;;3.30;99.90;;;;;;4994099;28;20174;-77
2023/02/15 06:57:41;;;;;;;18.30;13.75;;;3.30;99.90;;;;;;4995432;28;20694;-76
2023/02/15 07:00:08;;;;;;;25.03;16.20;;;3.30;99.90;;;;;;4993530;28;20167;-76
2023/02/15 07:02:33;;;;;;;21.65;15.02;;;3.30;99.90;;;;;;5003141;28;20647;-75
2023/02/15 07:04:59;;;;;;;21.90;15.13;;;3.30;99.90;;;;;;5002731;28;20182;-76
2023/02/15 07:07:25;;;;;;;20.60;13.60;;;3.30;99.90;;;;;;5006790;28;20609;-76
2023/02/15 07:09:51;;;;;;;23.43;14.63;;;3.30;99.90;;;;;;5013137;28;20557;-76
2023/02/15 07:15:01;;;;;;;20.13;14.98;;;3.40;99.90;;;;;;5002018;28;20574;-76
2023/02/15 07:17:28;;;;;;;20.50;12.27;;;3.40;99.90;;;;;;4997156;28;20181;-76
2023/02/15 07:19:54;;;;;;;24.75;14.07;;;3.40;99.90;;;;;;4995755;28;21154;-76
2023/02/15 07:22:21;;;;;;;21.38;14.27;;;3.40;99.90;;;;;;4997615;28;20203;-77
2023/02/15 07:24:48;;;;;;;17.40;11.27;;;3.40;99.90;;;;;;4998440;28;20182;-76
2023/02/15 07:27:15;;;;;;;17.65;13.85;;;3.50;99.90;;;;;;5000110;28;20203;-77
2023/02/15 07:29:40;;;;;;;21.85;13.45;;;3.50;99.90;;;;;;4998379;28;20535;-78
2023/02/15 07:32:06;;;;;;;18.73;12.83;;;3.50;99.90;;;;;;5018584;28;20210;-76
2023/02/15 07:34:32;;;;;;;18.73;13.20;;;3.50;99.90;;;;;;5004633;28;20178;-77
2023/02/15 07:36:58;;;;;;;19.63;13.10;;;3.50;99.90;;;;;;4991603;28;20269;-77
2023/02/15 07:39:23;;;;;;;21.37;14.00;;;3.50;99.90;;;;;;5004130;28;20701;-77
2023/02/15 07:41:49;;;;;;;18.67;13.77;;;3.60;99.90;;;;;;5016513;28;20223;-77
2023/02/15 07:44:15;;;;;;;18.30;13.53;;;3.60;99.90;;;;;;5026696;28;20269;-76
2023/02/15 07:46:41;;;;;;;17.60;11.80;;;3.60;99.90;;;;;;4991504;28;20257;-76
2023/02/15 07:49:07;;;;;;;24.77;15.32;;;3.70;99.90;;;;;;4998993;28;20586;-76
2023/02/15 07:51:33;;;;;;;21.10;13.68;;;3.60;99.90;;;;;;4990518;28;20187;-75
2023/02/15 07:53:59;;;;;;;17.70;13.27;;;3.60;99.90;;;;;;4990889;28;20238;-76
2023/02/15 07:56:25;;;;;;;16.40;12.33;;;3.70;99.90;;;;;;5006010;28;20171;-76
2023/02/15 07:58:51;;;;;;;14.63;11.37;;;3.70;99.90;;;;;;5002666;28;20177;-75
2023/02/15 08:01:22;;;;;;;18.05;11.85;;;3.80;99.90;;;;;;5002933;28;20198;-75
2023/02/15 08:03:48;;;;;;;22.35;14.07;;;3.80;99.90;;;;;;4994998;28;20171;-76
2023/02/15 08:06:14;;;;;;;22.02;15.93;;;3.90;99.90;;;;;;4994045;28;20179;-75
2023/02/15 08:08:41;;;;;;;20.25;13.30;;;3.90;99.90;;;;;;4998412;28;20633;-76
2023/02/15 08:11:25;;;;;;;19.42;13.40;;;3.90;99.90;;;;;;4991824;28;20294;-76
2023/02/15 08:14:06;;;;;;;16.80;12.38;;;3.90;99.90;;;;;;4993011;28;20199;-76
2023/02/15 08:16:43;;;;;;;19.75;12.88;;;4.00;99.90;;;;;;4992672;28;20217;-75
2023/02/15 08:19:15;;;;;;;16.63;11.63;;;4.10;99.90;;;;;;4992845;28;20174;-75
2023/02/15 08:21:49;;;;;;;18.85;12.93;;;4.20;99.90;;;;;;4991456;28;20194;-75
2023/02/15 08:24:18;;;;;;;19.67;12.90;;;4.30;99.90;;;;;;5003234;28;20175;-75
2023/02/15 08:26:47;;;;;;;19.35;13.18;;;4.40;99.90;;;;;;4995736;28;20195;-76
2023/02/15 08:29:23;;;;;;;17.10;11.80;;;4.50;99.90;;;;;;4993736;28;20271;-76
2023/02/15 08:31:52;;;;;;;18.75;12.82;;;4.60;99.90;;;;;;4992984;28;20214;-76
2023/02/15 08:34:19;;;;;;;18.95;12.52;;;4.70;99.90;;;;;;4993535;28;20178;-76
2023/02/15 08:36:45;;;;;;;17.25;11.68;;;4.70;99.90;;;;;;4994090;28;20518;-75
2023/02/15 08:39:12;;;;;;;18.15;13.00;;;4.80;99.90;;;;;;4993800;28;20179;-75
2023/02/15 08:41:41;;;;;;;20.25;14.68;;;4.90;99.90;;;;;;4993379;28;20202;-76
2023/02/15 08:44:08;;;;;;;16.65;12.80;;;5.00;99.90;;;;;;4993797;28;20265;-75
2023/02/15 08:46:36;;;;;;;14.18;11.43;;;5.10;99.90;;;;;;4994063;28;20699;-76
2023/02/15 08:49:03;;;;;;;18.42;14.13;;;5.20;99.90;;;;;;4992255;28;20198;-76
2023/02/15 08:51:32;;;;;;;17.33;12.20;;;5.30;99.90;;;;;;4993535;28;20265;-76
2023/02/15 08:54:00;;;;;;;18.30;13.20;;;5.40;99.90;;;;;;4994436;28;20175;-76
2023/02/15 08:56:29;;;;;;;21.98;13.85;;;5.40;99.90;;;;;;4996193;28;20167;-76
2023/02/15 08:58:56;;;;;;;15.55;11.00;;;5.50;99.90;;;;;;5008845;28;20174;-76
2023/02/15 09:01:27;;;;;;;17.95;12.82;;;5.80;99.90;;;;;;4992957;28;20199;-75
2023/02/15 09:03:58;;;;;;;18.85;12.32;;;6.30;99.90;;;;;;4995369;28;20828;-75
2023/02/15 09:06:24;;;;;;;17.33;13.55;;;6.90;99.90;;;;;;4993941;28;20198;-76
2023/02/15 09:08:51;;;;;;;15.05;11.68;;;7.50;99.90;;;;;;4993815;28;20170;-76
2023/02/15 09:11:23;;;;;;;11.88;10.27;;;8.20;99.90;;;;;;4994426;28;20187;-76
2023/02/15 09:13:57;;;;;;;13.50;11.95;;;8.90;99.90;;;;;;4994499;28;20174;-76
2023/02/15 09:16:25;;;;;;;14.00;10.90;;;9.50;99.90;;;;;;4992488;28;20655;-77
2023/02/15 09:18:51;;;;;;;14.00;11.25;;;10.20;99.90;;;;;;4990169;28;20884;-77
2023/02/15 09:21:20;;;;;;;14.27;10.73;;;10.80;99.90;;;;;;4992849;28;20194;-76
2023/02/15 09:23:48;;;;;;;12.13;10.80;;;11.20;99.90;;;;;;4992845;28;20186;-76
2023/02/15 09:26:19;;;;;;;13.87;11.03;;;11.70;99.90;;;;;;4993791;28;20186;-76
2023/02/15 09:28:45;;;;;;;12.23;9.70;;;12.30;99.90;;;;;;4992686;28;20594;-76
2023/02/15 09:31:16;;;;;;;13.20;11.23;;;12.60;99.90;;;;;;4991776;28;20634;-76
2023/02/15 09:33:43;;;;;;;13.03;10.47;;;13.00;99.90;;;;;;4991447;28;20606;-77
2023/02/15 09:36:27;;;;;;;12.40;10.70;;;13.30;99.90;;;;;;4992091;28;20598;-78
2023/02/15 09:39:02;;;;;;;12.53;11.23;;;13.40;99.90;;;;;;4992675;28;20923;-78
2023/02/15 09:41:55;;;;;;;12.87;9.40;;;13.80;99.90;;;;;;4991438;28;20612;-78
2023/02/15 09:44:29;;;;;;;11.17;9.30;;;14.30;99.90;;;;;;4992533;28;20582;-78
2023/02/15 09:47:13;;;;;;;13.37;9.23;;;14.90;99.90;;;;;;4991949;28;20628;-77
2023/02/15 09:50:00;;;;;;;10.37;9.27;;;15.60;99.90;;;;;;4991191;28;20692;-77
2023/02/15 09:52:43;;;;;;;9.20;7.17;;;16.10;99.90;;;;;;4990488;28;20645;-77
2023/02/15 09:55:15;;;;;;;10.87;9.43;;;16.30;99.90;;;;;;5025831;28;20628;-77
2023/02/15 09:58:07;;;;;;;11.17;9.33;;;16.50;99.90;;;;;;5011353;28;20928;-78
2023/02/15 10:00:44;;;;;;;10.47;9.23;;;16.90;99.90;;;;;;5014292;28;20596;-77
2023/02/15 10:03:20;;;;;;;11.33;9.33;;;17.10;99.90;;;;;;5001480;28;20592;-78
2023/02/15 10:06:01;;;;;;;12.30;9.60;;;17.20;99.90;;;;;;5003547;28;20613;-77
2023/02/15 10:08:45;;;;;;;11.03;9.87;;;17.20;99.60;;;;;;5009770;28;20644;-77
2023/02/15 10:11:40;;;;;;;11.37;9.53;;;16.70;95.30;;;;;;5009355;28;21078;-77
2023/02/15 10:14:24;;;;;;;10.67;9.57;;;16.20;90.90;;;;;;5011174;28;20619;-78
2023/02/15 10:17:07;;;;;;;13.03;10.70;;;15.70;93.10;;;;;;5010496;28;20577;-77
2023/02/15 10:19:33;;;;;;;11.00;9.80;;;15.10;85.00;;;;;;4991057;28;20598;-77
2023/02/15 10:22:06;;;;;;;13.70;10.37;;;14.60;88.90;;;;;;4989277;28;20668;-77
2023/02/15 10:25:00;;;;;;;10.93;9.83;;;14.20;90.00;;;;;;4990373;28;20857;-77
2023/02/15 10:27:32;;;;;;;11.30;9.90;;;14.20;93.20;;;;;;4990396;28;20628;-78
2023/02/15 10:30:13;;;;;;;11.27;9.00;;;14.10;93.90;;;;;;4991892;28;20621;-75
2023/02/15 10:33:00;;;;;;;14.23;11.17;;;14.20;95.90;;;;;;4986188;28;21096;-77
2023/02/15 10:35:47;;;;;;;15.73;10.73;;;14.20;92.50;;;;;;5013027;28;20582;-77
2023/02/15 10:38:25;;;;;;;12.53;9.07;;;14.10;92.90;;;;;;4989425;28;20617;-76
2023/02/15 10:41:36;;;;;;;12.13;10.67;;;14.00;95.10;;;;;;4984518;28;20583;-77
2023/02/15 10:44:38;;;;;;;11.27;10.07;;;14.00;94.60;;;;;;4981738;28;20640;-77
2023/02/15 10:47:19;;;;;;;14.73;10.13;;;14.00;94.40;;;;;;4991799;28;20657;-77
2023/02/15 10:50:03;;;;;;;12.17;10.07;;;14.00;94.50;;;;;;4974221;28;21112;-77
2023/02/15 10:52:54;;;;;;;10.63;9.10;;;14.00;95.50;;;;;;4994187;28;20634;-77
2023/02/15 10:56:04;;;;;;;11.60;9.33;;;13.90;92.10;;;;;;4973429;28;20570;-77
2023/02/15 10:58:51;;;;;;;12.00;9.43;;;13.70;91.80;;;;;;5000577;28;20609;-76
2023/02/15 11:01:48;;;;;;;12.37;10.30;;;13.50;91.60;;;;;;4976382;28;21215;-77
2023/02/15 11:04:45;;;;;;;12.10;10.83;;;13.50;93.40;;;;;;5009794;28;20589;-77
2023/02/15 11:07:31;;;;;;;11.33;9.57;;;13.50;94.50;;;;;;5009653;28;20643;-76
2023/02/15 11:10:23;;;;;;;10.57;9.47;;;13.50;94.80;;;;;;5010991;28;21231;-75
2023/02/15 11:12:50;;;;;;;12.27;10.23;;;13.40;93.30;;;;;;5010383;28;20685;-76
2023/02/15 11:15:25;;;;;;;13.07;10.47;;;13.50;95.10;;;;;;5000409;28;20663;-77
2023/02/15 11:18:00;;;;;;;10.67;9.07;;;13.50;95.60;;;;;;4993066;28;20609;-78
2023/02/15 11:20:45;;;;;;;10.30;9.10;;;13.70;96.30;;;;;;5000629;28;20592;-77
2023/02/15 11:23:16;;;;;;;12.87;10.70;;;14.00;96.10;;;;;;5010483;28;20586;-77
2023/02/15 11:25:46;;;;;;;11.83;10.53;;;14.20;95.30;;;;;;5010378;28;21263;-77
2023/02/15 11:28:22;;;;;;;12.10;9.77;;;14.10;94.80;;;;;;5010544;28;20668;-77
2023/02/15 11:30:51;;;;;;;11.67;10.47;;;14.00;91.80;;;;;;5014513;28;20577;-75
2023/02/15 11:33:28;;;;;;;12.93;10.43;;;13.90;92.80;;;;;;4990178;28;20625;-76
2023/02/15 11:36:03;;;;;;;13.90;11.07;;;13.90;92.80;;;;;;5002085;28;20593;-76
2023/02/15 11:38:32;;;;;;;10.13;8.87;;;14.00;93.80;;;;;;5013790;28;20631;-76
2023/02/15 11:41:14;;;;;;;12.73;10.97;;;14.10;95.10;;;;;;5012116;28;20617;-76
2023/02/15 11:43:53;;;;;;;12.40;9.37;;;13.90;92.60;;;;;;5013698;28;21426;-75
2023/02/15 11:46:20;;;;;;;12.87;10.80;;;13.80;93.30;;;;;;5028013;28;20616;-76
2023/02/15 11:48:46;;;;;;;11.87;9.73;;;13.70;93.80;;;;;;4997668;28;20722;-76
2023/02/15 11:51:16;;;;;;;10.83;9.20;;;13.50;93.10;;;;;;5014187;28;20585;-77
2023/02/15 11:53:43;;;;;;;15.02;11.25;;;13.40;93.20;;;;;;5013726;28;20185;-75
2023/02/15 11:56:23;;;;;;;17.23;11.07;;;13.10;92.40;;;;;;4996964;28;20562;-75
2023/02/15 11:59:07;;;;;;;12.23;10.07;;;12.90;93.10;;;;;;4999312;28;20175;-75
2023/02/15 12:01:36;;;;;;;10.65;8.50;;;12.80;93.80;;;;;;5003264;28;20190;-75
2023/02/15 12:04:09;;;;;;;11.38;8.93;;;12.70;94.30;;;;;;5021442;28;20262;-75
2023/02/15 12:06:41;;;;;;;12.45;9.52;;;12.70;94.40;;;;;;5001981;28;20179;-74
2023/02/15 12:09:37;;;;;;;13.00;10.63;;;12.70;94.70;;;;;;5003956;28;20175;-75
2023/02/15 12:12:24;;;;;;;12.45;10.10;;;12.50;94.30;;;;;;5003084;28;20286;-75
2023/02/15 12:14:53;;;;;;;12.15;10.38;;;12.40;94.50;;;;;;5008345;28;20181;-75
2023/02/15 12:17:48;;;;;;;11.48;9.43;;;12.30;94.90;;;;;;5004448;28;20253;-75
2023/02/15 12:20:14;;;;;;;11.63;9.55;;;12.40;95.30;;;;;;4984648;28;20264;-77
2023/02/15 12:22:48;;;;;;;10.37;8.37;;;12.40;96.20;;;;;;5007153;28;20221;-76
2023/02/15 12:25:42;;;;;;;16.17;10.90;;;12.40;96.10;;;;;;5012147;28;20178;-77
2023/02/15 12:28:37;;;;;;;16.30;12.38;;;12.50;96.10;;;;;;4996048;28;20305;-76
2023/02/15 12:31:10;;;;;;;11.73;9.80;;;12.60;96.50;;;;;;4997662;28;20233;-76
2023/02/15 12:33:43;;;;;;;13.68;10.38;;;12.60;96.50;;;;;;4993048;28;20171;-75
2023/02/15 12:36:44;;;;;;;15.25;10.57;;;12.60;96.70;;;;;;4992227;28;20391;-77
2023/02/15 12:39:12;;;;;;;13.55;11.40;;;12.60;96.50;;;;;;4922594;28;20190;-75
2023/02/15 12:41:45;;;;;;;12.98;10.20;;;12.60;96.30;;;;;;4987328;28;20607;-75
2023/02/15 12:44:25;;;;;;;11.50;9.90;;;12.60;96.50;;;;;;4973234;28;20547;-76
2023/02/15 12:47:02;;;;;;;14.18;9.25;;;12.60;96.50;;;;;;4972188;28;20200;-76
2023/02/15 12:49:32;;;;;;;14.07;11.30;;;12.60;96.60;;;;;;4973092;28;20184;-76
2023/02/15 12:52:22;;;;;;;17.02;11.00;;;12.60;96.00;;;;;;4939872;28;20198;-76
2023/02/15 12:54:49;;;;;;;15.38;10.60;;;12.60;96.30;;;;;;4989005;28;20173;-76
2023/02/15 12:57:25;;;;;;;9.82;8.40;;;12.60;96.00;;;;;;5012874;28;20596;-76
2023/02/15 13:00:03;;;;;;;12.25;9.20;;;12.60;96.50;;;;;;5012392;28;20178;-75
2023/02/15 13:02:41;;;;;;;10.90;8.80;;;12.60;96.80;;;;;;4994604;28;20566;-76
2023/02/15 13:05:30;;;;;;;12.93;10.05;;;12.70;96.80;;;;;;5014560;28;20845;-75
2023/02/15 13:08:00;;;;;;;12.32;10.23;;;12.70;96.90;;;;;;5003093;28;20207;-77
2023/02/15 13:10:30;;;;;;;12.23;10.93;;;12.80;97.00;;;;;;4987062;28;20176;-76
2023/02/15 13:12:57;;;;;;;12.48;10.10;;;12.80;96.30;;;;;;5009930;28;20205;-76
2023/02/15 13:15:37;;;;;;;16.77;9.80;;;12.80;97.10;;;;;;5001280;28;20543;-77
2023/02/15 13:18:05;;;;;;;11.63;9.48;;;12.90;96.80;;;;;;5001283;28;20174;-76
2023/02/15 13:20:34;;;;;;;9.75;8.73;;;12.90;97.00;;;;;;4992557;28;20179;-76
2023/02/15 13:23:05;;;;;;;11.52;10.00;;;12.90;97.00;;;;;;5015707;28;20318;-76
2023/02/15 13:25:40;;;;;;;11.45;9.82;;;12.90;96.90;;;;;;4994979;28;20264;-75